Wichita Mid Continent Airport
KICT : now visible

Airfield :











YOU CAN JOIN US ON...

 
LOGIN :

Register | Disclaimer

   EN    FR    IT 

 









Legend :    VFR   Marginal VFR   IFR   Intensive IFR   Very Intensive IFR
Visi :
Ceiling :
>= 8 km
>= 3000ft
5 to 8 km
1000 to 3000 ft
1500m to 5 km
500 to 1000 ft
800 to 1500m
200 to 500 ft
< 800m
< 200 ft
Symbols :   Thunderstorms  Fog  Heavy snow  Heavy precipitations  Wind > 20 kt






- Airport Elevation : 1333 ft
- IATA code : ICT


KICT - Wichita Mid Continent

CURRENT METAR :
  • 230853Z 33004KT 10SM SCT100 BKN160 OVC200 21/18 A3004 RMK AO2 SLP160 T02110178 57001

EXPIRED METARs :
  • 230753Z 31005KT 10SM SCT120 BKN160 OVC200 21/18 A3004 RMK AO2 SLP159 T02060178
  • 230653Z 00000KT 10SM BKN120 BKN160 OVC200 22/17 A3005 RMK AO2 SLP161 T02220167
  • 230553Z 00000KT 10SM FEW120 BKN160 BKN220 23/17 A3005 RMK AO2 SLP161 T02280167 10294 20228 403110167 52006
  • 230453Z 00000KT 10SM FEW120 SCT160 BKN220 23/17 A3004 RMK AO2 SLP158 T02280167

TAF KICT
Valid from the 23 at 06:00 until the 24 at 06:00 UTC


230524Z 2306/2406 10005KT P6SM SCT120
FM231500 15007KT P6SM FEW200
KZKC FIR / North America



MET'MAP, your aeronautical weather chart ! - Copyright ORBIFLY December 2007 - Disclaimer

ORBIFLY MET'MAP TEAM :

Programming & Development : Alexandra Zaïnal
Original concept : Baudouin d'Aumeries
Technical & hardware support : Manuel Goepfert
Assistance : Marc-Olivier Méhu




SOURCES & CREDITS :

   NOAA       Earth
Advisory